Georgia Highway — 7JCV — position and weather

sailwx.info

Track history (hours):
 
Tides and Currents Weather Stations Pressure Air Temp Water Temp Dewpoint Dewpoint Depression Visibility Wind Speed Wind Dir Waves Ship Positions

Georgia Highway

Last reported at 2016-Dec-03 10:33 UTC. Time now 2016-Dec-04 12:20 UTC.
Position N 36°14' E 014°42'.

Length 200 m; draft 9.5 m.

Type: Cargo ship. MMSI: 432629000.

Date/timePositionNaut miles runAvg speedWind from/ knotsBaromVisibWave heightAir tempDewpointWater temp
2016-Dec-03 10:33N 36°14' E 014°42'1514.8
2016-Dec-03 09:33N 36°17' E 014°24'1515.1
2016-Dec-03 08:33N 36°23' E 014°07'1717.2
2016-Dec-03 07:33N 36°29' E 013°47'  
2016-Nov-30 16:13N 35°59' W 005°11'913.2
2016-Nov-30 15:33N 35°58' W 005°21'24911.8
2016-Nov-29 18:33N 37°58' W 009°54'1814.5
2016-Nov-29 17:18N 38°16' W 009°59'1114.5
2016-Nov-29 16:33N 38°26' W 010°02'1414.4
2016-Nov-29 15:33N 38°40' W 010°06'1414.3
2016-Nov-29 14:33N 38°55' W 010°06'1414.2
2016-Nov-29 13:33N 39°09' W 010°06'1414.3
2016-Nov-29 12:33N 39°23' W 010°07'66314.0
2016-Nov-27 13:23N 49°33' W 004°03'1315.8
2016-Nov-27 12:32N 49°40' W 003°45'1616.7
2016-Nov-27 11:34N 49°48' W 003°24'1717.0
2016-Nov-27 10:34N 49°58' W 003°02'1716.5
2016-Nov-27 09:34N 50°04' W 002°38'1615.2
2016-Nov-27 08:31N 50°07' W 002°14'1313.7
2016-Nov-27 07:33N 50°10' W 001°54'1312.9
2016-Nov-27 06:33N 50°14' W 001°34'1312.9
2016-Nov-27 05:33N 50°18' W 001°15'1714.2
2016-Nov-27 04:21N 50°23' W 000°50'1316.0
2016-Nov-27 03:33N 50°26' W 000°30'1716.6
2016-Nov-27 02:33N 50°31' W 000°05'1717.0
2016-Nov-27 01:33N 50°36' E 000°21'2216.4
2016-Nov-27 00:13N 50°43' E 000°54'1115.3
2016-Nov-26 23:29N 50°49' E 001°08'1314.2
2016-Nov-26 22:33N 50°58' E 001°23'1414.0
2016-Nov-26 21:34N 51°08' E 001°38'1514.8
2016-Nov-26 20:34N 51°21' E 001°50'1616.3
2016-Nov-26 19:34N 51°34' E 002°06'1817.3
2016-Nov-26 18:32N 51°47' E 002°25'1717.1
2016-Nov-26 17:33N 51°60' E 002°43'1716.4
2016-Nov-26 16:32N 52°12' E 003°02'1615.5
2016-Nov-26 15:32N 52°25' E 003°16'1514.8
2016-Nov-26 14:29N 52°37' E 003°31'1414.4
2016-Nov-26 13:32N 52°48' E 003°44'1414.4
2016-Nov-26 12:33N 52°58' E 004°02'1515.2
2016-Nov-26 11:34N 53°08' E 004°21'1615.8
2016-Nov-26 10:33N 53°22' E 004°33'1515.5
2016-Nov-26 09:33N 53°32' E 004°52'1616.1
2016-Nov-26 08:33N 53°38' E 005°17'1515.2
2016-Nov-26 07:33N 53°43' E 005°42'1514.6
2016-Nov-26 06:34N 53°47' E 006°05'1414.1
2016-Nov-26 05:33N 53°51' E 006°28'1414.2
2016-Nov-26 04:33N 53°54' E 006°52'1615.0
2016-Nov-26 03:30N 53°58' E 007°18'1413.9
2016-Nov-26 02:27N 53°56' E 007°43'1112.2
2016-Nov-26 01:33N 53°51' E 007°59'1616.1
2016-Nov-26 00:33N 53°41' E 008°21'1010.5
2016-Nov-25 23:33N 53°34' E 008°33'1 0.8
2016-Nov-25 22:33N 53°35' E 008°33'0 0.0
2016-Nov-25 21:33N 53°35' E 008°33'0 0.0
2016-Nov-25 20:33N 53°35' E 008°33'0 0.0
2016-Nov-25 19:33N 53°35' E 008°33'0 0.0
2016-Nov-25 18:33N 53°35' E 008°33'0 0.0
2016-Nov-25 17:33N 53°35' E 008°33'0 0.0
2016-Nov-25 16:33N 53°35' E 008°33'0 0.0
2016-Nov-25 15:33N 53°35' E 008°33'0 0.0
2016-Nov-25 14:33N 53°35' E 008°33'0 0.0
2016-Nov-25 13:33N 53°35' E 008°33'0 0.0
2016-Nov-25 12:33N 53°35' E 008°33'0 0.0
2016-Nov-25 11:33N 53°35' E 008°33'0 0.0
2016-Nov-25 10:33N 53°35' E 008°33'0 0.0
2016-Nov-25 09:33N 53°35' E 008°33'0 0.0
2016-Nov-25 08:33N 53°35' E 008°33'0 0.0
2016-Nov-25 07:33N 53°35' E 008°33'0 0.0
2016-Nov-25 06:33N 53°35' E 008°33'0 0.0
2016-Nov-25 05:33N 53°35' E 008°33'0 0.0
2016-Nov-25 04:33N 53°35' E 008°33'0 0.0
2016-Nov-25 03:33N 53°35' E 008°33'0 0.0
2016-Nov-25 02:33N 53°35' E 008°33'0 0.0
2016-Nov-25 01:33N 53°35' E 008°33'0 0.0
2016-Nov-25 00:30N 53°35' E 008°33'0 0.0
2016-Nov-24 23:33N 53°35' E 008°33'0 0.0
2016-Nov-24 22:30N 53°35' E 008°33'0 0.0
2016-Nov-24 21:33N 53°35' E 008°33'0 0.0
2016-Nov-24 20:33N 53°35' E 008°33'0 0.0
2016-Nov-24 19:30N 53°35' E 008°33'0 0.0
2016-Nov-24 18:33N 53°35' E 008°33'0 0.0
2016-Nov-24 17:33N 53°35' E 008°33'0 0.0
2016-Nov-24 16:30N 53°35' E 008°33'0 0.0
2016-Nov-24 15:33N 53°35' E 008°33'0 0.0
2016-Nov-24 14:33N 53°35' E 008°33'0 0.0
2016-Nov-24 13:33N 53°35' E 008°33'0 0.0
2016-Nov-24 12:33N 53°35' E 008°33'0 0.0
2016-Nov-24 11:33N 53°35' E 008°33'0 0.0
2016-Nov-24 10:33N 53°35' E 008°33'0 0.0
2016-Nov-24 09:30N 53°35' E 008°33'0 0.0
2016-Nov-24 08:33N 53°35' E 008°33'0 0.0
2016-Nov-24 07:33N 53°35' E 008°33'0 0.0
2016-Nov-24 06:33N 53°35' E 008°33'0 0.0
2016-Nov-24 05:33N 53°35' E 008°33'0 0.0
2016-Nov-24 04:33N 53°35' E 008°33'0 0.4
2016-Nov-24 03:33N 53°34' E 008°33'2 2.4
2016-Nov-24 02:33N 53°36' E 008°30'1414.4
2016-Nov-24 01:33N 53°45' E 008°12'1413.8
2016-Nov-24 00:33N 53°52' E 007°51'9 9.3
2016-Nov-23 23:33N 53°54' E 007°35'10 8.8
2016-Nov-23 22:23N 53°52' E 007°18'8 9.1
2016-Nov-23 21:33N 53°50' E 007°06'1212.0
2016-Nov-23 20:33N 53°48' E 006°46'1616.4
2016-Nov-23 19:33N 53°44' E 006°19'1716.8
2016-Nov-23 18:33N 53°38' E 005°52'1717.1
2016-Nov-23 17:33N 53°33' E 005°25'1717.4
2016-Nov-23 16:33N 53°27' E 004°57'1716.6
2016-Nov-23 15:33N 53°16' E 004°37'1817.6
2016-Nov-23 14:33N 53°01' E 004°22'1717.4
2016-Nov-23 13:33N 52°45' E 004°09'1817.9
2016-Nov-23 12:33N 52°33' E 003°47'1818.2
2016-Nov-23 11:33N 52°21' E 003°26'  
Track history (hours):
 
Tides and Currents Weather Stations Pressure Air Temp Water Temp Dewpoint Dewpoint Depression Visibility Wind Speed Wind Dir Waves Ship Positions

Georgia Highway

Last reported at 2016-Dec-03 10:33 UTC. Time now 2016-Dec-04 12:20 UTC.
Position N 36°14' E 014°42'.

Length 200 m; draft 9.5 m.

Type: Cargo ship. MMSI: 432629000.

Date/timePositionNaut miles runAvg speedWind from/ knotsBaromVisibWave heightAir tempDewpointWater temp
2016-Dec-03 10:33N 36°14' E 014°42'1514.8
2016-Dec-03 09:33N 36°17' E 014°24'1515.1
2016-Dec-03 08:33N 36°23' E 014°07'1717.2
2016-Dec-03 07:33N 36°29' E 013°47'  
2016-Nov-30 16:13N 35°59' W 005°11'913.2
2016-Nov-30 15:33N 35°58' W 005°21'24911.8
2016-Nov-29 18:33N 37°58' W 009°54'1814.5
2016-Nov-29 17:18N 38°16' W 009°59'1114.5
2016-Nov-29 16:33N 38°26' W 010°02'1414.4
2016-Nov-29 15:33N 38°40' W 010°06'1414.3
2016-Nov-29 14:33N 38°55' W 010°06'1414.2
2016-Nov-29 13:33N 39°09' W 010°06'1414.3
2016-Nov-29 12:33N 39°23' W 010°07'66314.0
2016-Nov-27 13:23N 49°33' W 004°03'1315.8
2016-Nov-27 12:32N 49°40' W 003°45'1616.7
2016-Nov-27 11:34N 49°48' W 003°24'1717.0
2016-Nov-27 10:34N 49°58' W 003°02'1716.5
2016-Nov-27 09:34N 50°04' W 002°38'1615.2
2016-Nov-27 08:31N 50°07' W 002°14'1313.7
2016-Nov-27 07:33N 50°10' W 001°54'1312.9
2016-Nov-27 06:33N 50°14' W 001°34'1312.9
2016-Nov-27 05:33N 50°18' W 001°15'1714.2
2016-Nov-27 04:21N 50°23' W 000°50'1316.0
2016-Nov-27 03:33N 50°26' W 000°30'1716.6
2016-Nov-27 02:33N 50°31' W 000°05'1717.0
2016-Nov-27 01:33N 50°36' E 000°21'2216.4
2016-Nov-27 00:13N 50°43' E 000°54'1115.3
2016-Nov-26 23:29N 50°49' E 001°08'1314.2
2016-Nov-26 22:33N 50°58' E 001°23'1414.0
2016-Nov-26 21:34N 51°08' E 001°38'1514.8
2016-Nov-26 20:34N 51°21' E 001°50'1616.3
2016-Nov-26 19:34N 51°34' E 002°06'1817.3
2016-Nov-26 18:32N 51°47' E 002°25'1717.1
2016-Nov-26 17:33N 51°60' E 002°43'1716.4
2016-Nov-26 16:32N 52°12' E 003°02'1615.5
2016-Nov-26 15:32N 52°25' E 003°16'1514.8
2016-Nov-26 14:29N 52°37' E 003°31'1414.4
2016-Nov-26 13:32N 52°48' E 003°44'1414.4
2016-Nov-26 12:33N 52°58' E 004°02'1515.2
2016-Nov-26 11:34N 53°08' E 004°21'1615.8
2016-Nov-26 10:33N 53°22' E 004°33'1515.5
2016-Nov-26 09:33N 53°32' E 004°52'1616.1
2016-Nov-26 08:33N 53°38' E 005°17'1515.2
2016-Nov-26 07:33N 53°43' E 005°42'1514.6
2016-Nov-26 06:34N 53°47' E 006°05'1414.1
2016-Nov-26 05:33N 53°51' E 006°28'1414.2
2016-Nov-26 04:33N 53°54' E 006°52'1615.0
2016-Nov-26 03:30N 53°58' E 007°18'1413.9
2016-Nov-26 02:27N 53°56' E 007°43'1112.2
2016-Nov-26 01:33N 53°51' E 007°59'1616.1
2016-Nov-26 00:33N 53°41' E 008°21'1010.5
2016-Nov-25 23:33N 53°34' E 008°33'1 0.8
2016-Nov-25 22:33N 53°35' E 008°33'0 0.0
2016-Nov-25 21:33N 53°35' E 008°33'0 0.0
2016-Nov-25 20:33N 53°35' E 008°33'0 0.0
2016-Nov-25 19:33N 53°35' E 008°33'0 0.0
2016-Nov-25 18:33N 53°35' E 008°33'0 0.0
2016-Nov-25 17:33N 53°35' E 008°33'0 0.0
2016-Nov-25 16:33N 53°35' E 008°33'0 0.0
2016-Nov-25 15:33N 53°35' E 008°33'0 0.0
2016-Nov-25 14:33N 53°35' E 008°33'0 0.0
2016-Nov-25 13:33N 53°35' E 008°33'0 0.0
2016-Nov-25 12:33N 53°35' E 008°33'0 0.0
2016-Nov-25 11:33N 53°35' E 008°33'0 0.0
2016-Nov-25 10:33N 53°35' E 008°33'0 0.0
2016-Nov-25 09:33N 53°35' E 008°33'0 0.0
2016-Nov-25 08:33N 53°35' E 008°33'0 0.0
2016-Nov-25 07:33N 53°35' E 008°33'0 0.0
2016-Nov-25 06:33N 53°35' E 008°33'0 0.0
2016-Nov-25 05:33N 53°35' E 008°33'0 0.0
2016-Nov-25 04:33N 53°35' E 008°33'0 0.0
2016-Nov-25 03:33N 53°35' E 008°33'0 0.0
2016-Nov-25 02:33N 53°35' E 008°33'0 0.0
2016-Nov-25 01:33N 53°35' E 008°33'0 0.0
2016-Nov-25 00:30N 53°35' E 008°33'0 0.0
2016-Nov-24 23:33N 53°35' E 008°33'0 0.0
2016-Nov-24 22:30N 53°35' E 008°33'0 0.0
2016-Nov-24 21:33N 53°35' E 008°33'0 0.0
2016-Nov-24 20:33N 53°35' E 008°33'0 0.0
2016-Nov-24 19:30N 53°35' E 008°33'0 0.0
2016-Nov-24 18:33N 53°35' E 008°33'0 0.0
2016-Nov-24 17:33N 53°35' E 008°33'0 0.0
2016-Nov-24 16:30N 53°35' E 008°33'0 0.0
2016-Nov-24 15:33N 53°35' E 008°33'0 0.0
2016-Nov-24 14:33N 53°35' E 008°33'0 0.0
2016-Nov-24 13:33N 53°35' E 008°33'0 0.0
2016-Nov-24 12:33N 53°35' E 008°33'0 0.0
2016-Nov-24 11:33N 53°35' E 008°33'0 0.0
2016-Nov-24 10:33N 53°35' E 008°33'0 0.0
2016-Nov-24 09:30N 53°35' E 008°33'0 0.0
2016-Nov-24 08:33N 53°35' E 008°33'0 0.0
2016-Nov-24 07:33N 53°35' E 008°33'0 0.0
2016-Nov-24 06:33N 53°35' E 008°33'0 0.0
2016-Nov-24 05:33N 53°35' E 008°33'0 0.0
2016-Nov-24 04:33N 53°35' E 008°33'0 0.4
2016-Nov-24 03:33N 53°34' E 008°33'2 2.4
2016-Nov-24 02:33N 53°36' E 008°30'1414.4
2016-Nov-24 01:33N 53°45' E 008°12'1413.8
2016-Nov-24 00:33N 53°52' E 007°51'9 9.3
2016-Nov-23 23:33N 53°54' E 007°35'10 8.8
2016-Nov-23 22:23N 53°52' E 007°18'8 9.1
2016-Nov-23 21:33N 53°50' E 007°06'1212.0
2016-Nov-23 20:33N 53°48' E 006°46'1616.4
2016-Nov-23 19:33N 53°44' E 006°19'1716.8
2016-Nov-23 18:33N 53°38' E 005°52'1717.1
2016-Nov-23 17:33N 53°33' E 005°25'1717.4
2016-Nov-23 16:33N 53°27' E 004°57'1716.6
2016-Nov-23 15:33N 53°16' E 004°37'1817.6
2016-Nov-23 14:33N 53°01' E 004°22'1717.4
2016-Nov-23 13:33N 52°45' E 004°09'1817.9
2016-Nov-23 12:33N 52°33' E 003°47'1818.2
2016-Nov-23 11:33N 52°21' E 003°26'  

Dump ship's entire track history